sensor_id;sensor_type;location;lat;lon;timestamp;pressure;altitude;pressure_sealevel;temperature;humidity
59545;BME280;45368;55.002;-1.592;2023-05-03T00:01:20;102042.38;;;9.02;53.85
59545;BME280;45368;55.002;-1.592;2023-05-03T00:03:47;102047.49;;;8.97;54.97
59545;BME280;45368;55.002;-1.592;2023-05-03T00:06:17;102052.13;;;8.45;55.69
59545;BME280;45368;55.002;-1.592;2023-05-03T00:08:44;102052.53;;;8.71;54.61
59545;BME280;45368;55.002;-1.592;2023-05-03T00:11:11;102050.90;;;8.78;54.58
59545;BME280;45368;55.002;-1.592;2023-05-03T00:13:38;102053.20;;;8.60;54.63
59545;BME280;45368;55.002;-1.592;2023-05-03T00:16:05;102053.72;;;9.03;53.63
59545;BME280;45368;55.002;-1.592;2023-05-03T00:18:33;102057.01;;;8.85;54.04
59545;BME280;45368;55.002;-1.592;2023-05-03T00:21:00;102057.96;;;8.39;55.03
59545;BME280;45368;55.002;-1.592;2023-05-03T00:23:28;102055.50;;;8.85;54.82
59545;BME280;45368;55.002;-1.592;2023-05-03T00:25:57;102052.99;;;9.02;53.99
59545;BME280;45368;55.002;-1.592;2023-05-03T00:28:25;102049.69;;;9.53;52.84
59545;BME280;45368;55.002;-1.592;2023-05-03T00:30:52;102047.83;;;8.93;53.46
59545;BME280;45368;55.002;-1.592;2023-05-03T00:33:20;102044.29;;;9.27;52.77
59545;BME280;45368;55.002;-1.592;2023-05-03T00:35:47;102051.59;;;8.32;54.75
59545;BME280;45368;55.002;-1.592;2023-05-03T00:38:14;102048.50;;;8.86;54.02
59545;BME280;45368;55.002;-1.592;2023-05-03T00:40:41;102049.38;;;8.66;54.71
59545;BME280;45368;55.002;-1.592;2023-05-03T00:43:13;102051.61;;;8.33;55.84
59545;BME280;45368;55.002;-1.592;2023-05-03T00:45:41;102049.52;;;8.07;56.68
59545;BME280;45368;55.002;-1.592;2023-05-03T00:48:07;102044.34;;;8.68;55.51
59545;BME280;45368;55.002;-1.592;2023-05-03T00:50:36;102042.90;;;7.93;56.98
59545;BME280;45368;55.002;-1.592;2023-05-03T00:53:03;102042.84;;;8.22;56.67
59545;BME280;45368;55.002;-1.592;2023-05-03T00:55:32;102045.63;;;8.00;57.08
59545;BME280;45368;55.002;-1.592;2023-05-03T00:57:59;102043.45;;;7.66;57.86
59545;BME280;45368;55.002;-1.592;2023-05-03T01:00:26;102040.03;;;7.31;58.85
59545;BME280;45368;55.002;-1.592;2023-05-03T01:02:54;102043.78;;;8.25;57.02
59545;BME280;45368;55.002;-1.592;2023-05-03T01:05:21;102043.66;;;7.91;58.03
59545;BME280;45368;55.002;-1.592;2023-05-03T01:07:55;102043.36;;;7.90;57.39
59545;BME280;45368;55.002;-1.592;2023-05-03T01:10:37;102041.67;;;7.84;57.81
59545;BME280;45368;55.002;-1.592;2023-05-03T01:13:13;102045.91;;;7.99;57.85
59545;BME280;45368;55.002;-1.592;2023-05-03T01:15:47;102041.00;;;7.75;58.66
59545;BME280;45368;55.002;-1.592;2023-05-03T01:18:20;102031.81;;;7.60;58.41
59545;BME280;45368;55.002;-1.592;2023-05-03T01:20:49;102031.29;;;7.43;58.53
59545;BME280;45368;55.002;-1.592;2023-05-03T01:23:28;102036.58;;;7.08;60.08
59545;BME280;45368;55.002;-1.592;2023-05-03T01:25:58;102035.38;;;6.75;60.40
59545;BME280;45368;55.002;-1.592;2023-05-03T01:28:26;102029.49;;;7.31;59.12
59545;BME280;45368;55.002;-1.592;2023-05-03T01:30:53;102024.58;;;7.76;57.77
59545;BME280;45368;55.002;-1.592;2023-05-03T01:33:32;102020.27;;;7.89;58.16
59545;BME280;45368;55.002;-1.592;2023-05-03T01:36:10;102016.65;;;7.61;58.56
59545;BME280;45368;55.002;-1.592;2023-05-03T01:38:39;102021.91;;;7.17;59.83
59545;BME280;45368;55.002;-1.592;2023-05-03T01:41:13;102021.74;;;7.02;59.83
59545;BME280;45368;55.002;-1.592;2023-05-03T01:43:43;102020.86;;;6.76;60.70
59545;BME280;45368;55.002;-1.592;2023-05-03T01:46:11;102016.32;;;6.76;59.82
59545;BME280;45368;55.002;-1.592;2023-05-03T01:48:38;102014.96;;;6.91;59.77
59545;BME280;45368;55.002;-1.592;2023-05-03T01:51:05;102013.29;;;7.99;57.72
59545;BME280;45368;55.002;-1.592;2023-05-03T01:53:34;102020.15;;;7.34;58.75
59545;BME280;45368;55.002;-1.592;2023-05-03T01:56:02;102025.10;;;7.06;59.86
59545;BME280;45368;55.002;-1.592;2023-05-03T01:58:29;102024.37;;;7.84;58.36
59545;BME280;45368;55.002;-1.592;2023-05-03T02:00:56;102025.66;;;7.81;58.46
59545;BME280;45368;55.002;-1.592;2023-05-03T02:03:24;102021.43;;;8.12;57.54
59545;BME280;45368;55.002;-1.592;2023-05-03T02:05:51;102016.75;;;7.37;59.38
59545;BME280;45368;55.002;-1.592;2023-05-03T02:08:18;102016.57;;;6.98;60.40
59545;BME280;45368;55.002;-1.592;2023-05-03T02:10:45;102011.96;;;7.77;58.39
59545;BME280;45368;55.002;-1.592;2023-05-03T02:13:13;102014.73;;;7.53;58.95
59545;BME280;45368;55.002;-1.592;2023-05-03T02:15:40;102015.64;;;6.79;60.74
59545;BME280;45368;55.002;-1.592;2023-05-03T02:18:07;102015.51;;;7.15;59.93
59545;BME280;45368;55.002;-1.592;2023-05-03T02:20:35;102014.37;;;6.56;61.36
59545;BME280;45368;55.002;-1.592;2023-05-03T02:23:01;102007.48;;;7.20;59.53
59545;BME280;45368;55.002;-1.592;2023-05-03T02:25:29;102012.51;;;6.99;60.35
59545;BME280;45368;55.002;-1.592;2023-05-03T02:27:56;102014.90;;;7.35;59.48
59545;BME280;45368;55.002;-1.592;2023-05-03T02:30:24;102019.66;;;6.83;60.60
59545;BME280;45368;55.002;-1.592;2023-05-03T02:32:51;102022.74;;;6.75;61.49
59545;BME280;45368;55.002;-1.592;2023-05-03T02:35:18;102013.39;;;6.20;62.28
59545;BME280;45368;55.002;-1.592;2023-05-03T02:37:46;102010.60;;;7.17;60.69
59545;BME280;45368;55.002;-1.592;2023-05-03T02:40:16;102009.09;;;7.19;60.01
59545;BME280;45368;55.002;-1.592;2023-05-03T02:42:44;102010.70;;;7.54;60.02
59545;BME280;45368;55.002;-1.592;2023-05-03T02:45:12;102011.81;;;7.58;60.20
59545;BME280;45368;55.002;-1.592;2023-05-03T02:47:39;102011.98;;;6.98;61.21
59545;BME280;45368;55.002;-1.592;2023-05-03T02:50:07;102007.05;;;6.47;61.12
59545;BME280;45368;55.002;-1.592;2023-05-03T02:52:34;102002.96;;;7.29;60.37
59545;BME280;45368;55.002;-1.592;2023-05-03T02:55:03;102004.73;;;6.83;60.28
59545;BME280;45368;55.002;-1.592;2023-05-03T02:57:30;102006.85;;;7.03;60.01
59545;BME280;45368;55.002;-1.592;2023-05-03T02:59:57;102002.52;;;7.28;60.16
59545;BME280;45368;55.002;-1.592;2023-05-03T03:02:25;102005.10;;;7.72;58.70
59545;BME280;45368;55.002;-1.592;2023-05-03T03:04:52;102008.71;;;7.30;60.20
59545;BME280;45368;55.002;-1.592;2023-05-03T03:07:19;102004.01;;;7.30;59.45
59545;BME280;45368;55.002;-1.592;2023-05-03T03:09:46;102006.57;;;7.02;60.52
59545;BME280;45368;55.002;-1.592;2023-05-03T03:12:14;102007.74;;;7.64;59.34
59545;BME280;45368;55.002;-1.592;2023-05-03T03:14:41;102009.15;;;7.42;59.86
59545;BME280;45368;55.002;-1.592;2023-05-03T03:17:09;102006.39;;;7.32;60.18
59545;BME280;45368;55.002;-1.592;2023-05-03T03:19:36;102004.47;;;6.89;61.38
59545;BME280;45368;55.002;-1.592;2023-05-03T03:22:04;102002.58;;;6.79;61.48
59545;BME280;45368;55.002;-1.592;2023-05-03T03:24:31;102003.06;;;6.91;61.69
59545;BME280;45368;55.002;-1.592;2023-05-03T03:26:59;101999.76;;;7.18;60.63
59545;BME280;45368;55.002;-1.592;2023-05-03T03:29:30;102008.08;;;6.11;63.60
59545;BME280;45368;55.002;-1.592;2023-05-03T03:31:57;102004.95;;;6.27;64.02
59545;BME280;45368;55.002;-1.592;2023-05-03T03:34:24;101999.69;;;6.62;62.91
59545;BME280;45368;55.002;-1.592;2023-05-03T03:36:51;102006.06;;;6.33;63.35
59545;BME280;45368;55.002;-1.592;2023-05-03T03:39:18;102006.14;;;6.63;62.40
59545;BME280;45368;55.002;-1.592;2023-05-03T03:41:46;102004.06;;;7.01;62.43
59545;BME280;45368;55.002;-1.592;2023-05-03T03:44:13;102000.31;;;7.10;60.63
59545;BME280;45368;55.002;-1.592;2023-05-03T03:46:40;101998.73;;;6.60;62.34
59545;BME280;45368;55.002;-1.592;2023-05-03T03:49:13;102002.32;;;6.39;64.10
59545;BME280;45368;55.002;-1.592;2023-05-03T03:51:40;102004.97;;;7.18;61.74
59545;BME280;45368;55.002;-1.592;2023-05-03T03:54:07;102005.46;;;6.66;62.43
59545;BME280;45368;55.002;-1.592;2023-05-03T03:56:35;102007.36;;;7.18;61.66
59545;BME280;45368;55.002;-1.592;2023-05-03T03:59:02;102004.67;;;7.03;62.06
59545;BME280;45368;55.002;-1.592;2023-05-03T04:01:29;101998.59;;;6.93;62.23
59545;BME280;45368;55.002;-1.592;2023-05-03T04:03:57;101998.35;;;6.85;62.03
59545;BME280;45368;55.002;-1.592;2023-05-03T04:06:24;101999.26;;;7.14;62.17
59545;BME280;45368;55.002;-1.592;2023-05-03T04:08:52;102005.88;;;6.40;63.12
59545;BME280;45368;55.002;-1.592;2023-05-03T04:11:19;102006.79;;;6.88;62.23
59545;BME280;45368;55.002;-1.592;2023-05-03T04:13:46;102008.95;;;6.76;61.75
59545;BME280;45368;55.002;-1.592;2023-05-03T04:16:13;102009.65;;;7.45;61.07
59545;BME280;45368;55.002;-1.592;2023-05-03T04:18:41;102008.22;;;7.86;59.58
59545;BME280;45368;55.002;-1.592;2023-05-03T04:21:08;102010.56;;;7.35;60.69
59545;BME280;45368;55.002;-1.592;2023-05-03T04:23:35;102009.15;;;7.30;60.78
59545;BME280;45368;55.002;-1.592;2023-05-03T04:26:02;102005.40;;;6.87;62.76
59545;BME280;45368;55.002;-1.592;2023-05-03T04:28:30;101997.08;;;6.59;63.56
59545;BME280;45368;55.002;-1.592;2023-05-03T04:30:57;101987.64;;;6.75;63.26
59545;BME280;45368;55.002;-1.592;2023-05-03T04:33:25;101985.51;;;6.79;63.38
59545;BME280;45368;55.002;-1.592;2023-05-03T04:35:52;101984.84;;;7.16;62.16
59545;BME280;45368;55.002;-1.592;2023-05-03T04:38:18;101984.55;;;7.45;61.69
59545;BME280;45368;55.002;-1.592;2023-05-03T04:40:46;101987.96;;;7.24;62.42
59545;BME280;45368;55.002;-1.592;2023-05-03T04:43:14;101992.07;;;6.55;64.33
59545;BME280;45368;55.002;-1.592;2023-05-03T04:45:41;101992.86;;;7.11;61.60
59545;BME280;45368;55.002;-1.592;2023-05-03T04:48:08;101995.89;;;7.37;60.25
59545;BME280;45368;55.002;-1.592;2023-05-03T04:50:35;101994.94;;;6.89;61.17
59545;BME280;45368;55.002;-1.592;2023-05-03T04:53:03;101993.03;;;7.07;61.31
59545;BME280;45368;55.002;-1.592;2023-05-03T04:55:30;101997.46;;;7.55;59.71
59545;BME280;45368;55.002;-1.592;2023-05-03T04:57:57;102003.69;;;7.17;59.61
59545;BME280;45368;55.002;-1.592;2023-05-03T05:00:24;102002.06;;;7.42;60.33
59545;BME280;45368;55.002;-1.592;2023-05-03T05:02:51;102004.43;;;7.51;59.33
59545;BME280;45368;55.002;-1.592;2023-05-03T05:05:19;102009.24;;;6.48;62.60
59545;BME280;45368;55.002;-1.592;2023-05-03T05:07:46;102007.41;;;7.60;60.38
59545;BME280;45368;55.002;-1.592;2023-05-03T05:10:13;102011.82;;;6.80;61.13
59545;BME280;45368;55.002;-1.592;2023-05-03T05:12:40;102011.57;;;7.22;60.11
59545;BME280;45368;55.002;-1.592;2023-05-03T05:15:08;102007.43;;;7.70;58.81
59545;BME280;45368;55.002;-1.592;2023-05-03T05:17:36;102006.55;;;7.59;59.01
59545;BME280;45368;55.002;-1.592;2023-05-03T05:20:03;102008.56;;;8.07;58.10
59545;BME280;45368;55.002;-1.592;2023-05-03T05:22:31;102013.51;;;8.40;57.62
59545;BME280;45368;55.002;-1.592;2023-05-03T05:24:58;102013.93;;;6.99;59.91
59545;BME280;45368;55.002;-1.592;2023-05-03T05:27:26;102013.12;;;7.18;60.50
59545;BME280;45368;55.002;-1.592;2023-05-03T05:29:53;102014.27;;;7.79;58.78
59545;BME280;45368;55.002;-1.592;2023-05-03T05:32:21;102013.46;;;7.30;59.37
59545;BME280;45368;55.002;-1.592;2023-05-03T05:34:48;102017.56;;;7.37;59.31
59545;BME280;45368;55.002;-1.592;2023-05-03T05:37:16;102017.73;;;7.00;60.35
59545;BME280;45368;55.002;-1.592;2023-05-03T05:39:44;102016.91;;;7.30;59.94
59545;BME280;45368;55.002;-1.592;2023-05-03T05:42:12;102018.22;;;6.77;60.43
59545;BME280;45368;55.002;-1.592;2023-05-03T05:44:39;102019.78;;;6.58;62.33
59545;BME280;45368;55.002;-1.592;2023-05-03T05:47:08;102022.91;;;6.16;62.93
59545;BME280;45368;55.002;-1.592;2023-05-03T05:49:36;102021.04;;;7.65;60.16
59545;BME280;45368;55.002;-1.592;2023-05-03T05:52:03;102025.15;;;6.82;61.86
59545;BME280;45368;55.002;-1.592;2023-05-03T05:54:31;102028.20;;;5.83;64.07
59545;BME280;45368;55.002;-1.592;2023-05-03T05:56:58;102028.11;;;7.00;62.39
59545;BME280;45368;55.002;-1.592;2023-05-03T05:59:27;102031.27;;;6.53;63.29
59545;BME280;45368;55.002;-1.592;2023-05-03T06:01:54;102031.62;;;7.98;59.60
59545;BME280;45368;55.002;-1.592;2023-05-03T06:04:21;102034.65;;;7.45;60.12
59545;BME280;45368;55.002;-1.592;2023-05-03T06:06:48;102041.42;;;6.61;62.19
59545;BME280;45368;55.002;-1.592;2023-05-03T06:09:16;102038.89;;;7.47;59.68
59545;BME280;45368;55.002;-1.592;2023-05-03T06:11:43;102036.64;;;7.63;59.92
59545;BME280;45368;55.002;-1.592;2023-05-03T06:14:10;102038.15;;;7.68;59.34
59545;BME280;45368;55.002;-1.592;2023-05-03T06:16:38;102034.39;;;7.56;60.23
59545;BME280;45368;55.002;-1.592;2023-05-03T06:19:05;102032.39;;;7.44;60.12
59545;BME280;45368;55.002;-1.592;2023-05-03T06:21:33;102039.90;;;7.06;61.15
59545;BME280;45368;55.002;-1.592;2023-05-03T06:24:00;102040.73;;;7.53;60.18
59545;BME280;45368;55.002;-1.592;2023-05-03T06:26:28;102040.24;;;7.88;59.38
59545;BME280;45368;55.002;-1.592;2023-05-03T06:29:02;102041.80;;;7.97;58.08
59545;BME280;45368;55.002;-1.592;2023-05-03T06:31:30;102042.82;;;7.88;58.89
59545;BME280;45368;55.002;-1.592;2023-05-03T06:33:57;102046.27;;;6.77;61.01
59545;BME280;45368;55.002;-1.592;2023-05-03T06:36:24;102047.57;;;7.24;61.38
59545;BME280;45368;55.002;-1.592;2023-05-03T06:38:52;102049.45;;;6.71;62.02
59545;BME280;45368;55.002;-1.592;2023-05-03T06:41:18;102041.90;;;7.90;60.28
59545;BME280;45368;55.002;-1.592;2023-05-03T06:43:46;102043.37;;;7.38;60.68
59545;BME280;45368;55.002;-1.592;2023-05-03T06:46:13;102047.67;;;7.75;60.25
59545;BME280;45368;55.002;-1.592;2023-05-03T06:48:40;102049.68;;;7.89;60.13
59545;BME280;45368;55.002;-1.592;2023-05-03T06:51:07;102050.35;;;7.60;59.88
59545;BME280;45368;55.002;-1.592;2023-05-03T06:53:34;102052.63;;;7.36;60.29
59545;BME280;45368;55.002;-1.592;2023-05-03T06:56:02;102055.52;;;7.22;60.46
59545;BME280;45368;55.002;-1.592;2023-05-03T06:58:29;102055.14;;;7.21;60.57
59545;BME280;45368;55.002;-1.592;2023-05-03T07:00:57;102049.96;;;7.96;58.74
59545;BME280;45368;55.002;-1.592;2023-05-03T07:03:24;102044.60;;;8.58;57.56
59545;BME280;45368;55.002;-1.592;2023-05-03T07:05:52;102045.73;;;8.37;58.45
59545;BME280;45368;55.002;-1.592;2023-05-03T07:08:19;102039.66;;;8.39;57.86
59545;BME280;45368;55.002;-1.592;2023-05-03T07:10:47;102035.70;;;8.63;56.71
59545;BME280;45368;55.002;-1.592;2023-05-03T07:13:14;102034.40;;;9.06;56.79
59545;BME280;45368;55.002;-1.592;2023-05-03T07:15:42;102030.48;;;9.24;55.50
59545;BME280;45368;55.002;-1.592;2023-05-03T07:18:09;102039.75;;;8.43;57.01
59545;BME280;45368;55.002;-1.592;2023-05-03T07:20:36;102045.66;;;8.25;57.20
59545;BME280;45368;55.002;-1.592;2023-05-03T07:23:04;102040.94;;;8.75;55.70
59545;BME280;45368;55.002;-1.592;2023-05-03T07:25:30;102046.16;;;8.03;58.55
59545;BME280;45368;55.002;-1.592;2023-05-03T07:27:58;102035.12;;;9.18;55.90
59545;BME280;45368;55.002;-1.592;2023-05-03T07:30:25;102038.80;;;8.94;56.68
59545;BME280;45368;55.002;-1.592;2023-05-03T07:32:52;102045.87;;;8.34;57.40
59545;BME280;45368;55.002;-1.592;2023-05-03T07:35:19;102042.98;;;8.75;57.76
59545;BME280;45368;55.002;-1.592;2023-05-03T07:37:47;102040.44;;;8.76;56.79
59545;BME280;45368;55.002;-1.592;2023-05-03T07:40:14;102033.59;;;9.77;54.59
59545;BME280;45368;55.002;-1.592;2023-05-03T07:42:41;102029.84;;;10.15;53.63
59545;BME280;45368;55.002;-1.592;2023-05-03T07:45:09;102030.74;;;9.80;53.69
59545;BME280;45368;55.002;-1.592;2023-05-03T07:47:36;102032.55;;;9.46;54.21
59545;BME280;45368;55.002;-1.592;2023-05-03T07:50:06;102039.87;;;8.60;56.82
59545;BME280;45368;55.002;-1.592;2023-05-03T07:52:35;102041.26;;;9.18;55.97
59545;BME280;45368;55.002;-1.592;2023-05-03T07:55:03;102034.72;;;9.75;54.97
59545;BME280;45368;55.002;-1.592;2023-05-03T07:57:30;102032.75;;;9.59;54.65
59545;BME280;45368;55.002;-1.592;2023-05-03T08:00:01;102032.37;;;9.71;55.01
59545;BME280;45368;55.002;-1.592;2023-05-03T08:02:34;102028.10;;;9.79;54.37
59545;BME280;45368;55.002;-1.592;2023-05-03T08:05:02;102023.06;;;10.21;53.74
59545;BME280;45368;55.002;-1.592;2023-05-03T08:07:30;102024.43;;;9.83;54.07
59545;BME280;45368;55.002;-1.592;2023-05-03T08:09:57;102025.90;;;9.99;53.54
59545;BME280;45368;55.002;-1.592;2023-05-03T08:12:24;102017.35;;;11.44;51.46
59545;BME280;45368;55.002;-1.592;2023-05-03T08:14:52;102019.44;;;11.88;49.80
59545;BME280;45368;55.002;-1.592;2023-05-03T08:17:20;102019.29;;;11.07;50.55
59545;BME280;45368;55.002;-1.592;2023-05-03T08:19:48;102021.72;;;10.79;51.22
59545;BME280;45368;55.002;-1.592;2023-05-03T08:22:16;102028.67;;;9.70;53.25
59545;BME280;45368;55.002;-1.592;2023-05-03T08:24:43;102028.32;;;10.06;52.38
59545;BME280;45368;55.002;-1.592;2023-05-03T08:27:11;102025.24;;;11.67;49.49
59545;BME280;45368;55.002;-1.592;2023-05-03T08:29:38;102027.60;;;12.00;48.78
59545;BME280;45368;55.002;-1.592;2023-05-03T08:32:06;102023.80;;;12.56;47.41
59545;BME280;45368;55.002;-1.592;2023-05-03T08:34:33;102024.57;;;12.25;48.22
59545;BME280;45368;55.002;-1.592;2023-05-03T08:37:00;102019.86;;;13.10;45.85
59545;BME280;45368;55.002;-1.592;2023-05-03T08:39:27;102016.51;;;13.41;44.94
59545;BME280;45368;55.002;-1.592;2023-05-03T08:41:55;102018.31;;;12.89;46.22
59545;BME280;45368;55.002;-1.592;2023-05-03T08:44:23;102008.94;;;14.67;43.16
59545;BME280;45368;55.002;-1.592;2023-05-03T08:46:52;102008.57;;;14.45;42.68
59545;BME280;45368;55.002;-1.592;2023-05-03T08:49:20;102015.39;;;13.03;43.48
59545;BME280;45368;55.002;-1.592;2023-05-03T08:51:48;102015.40;;;12.87;44.74
59545;BME280;45368;55.002;-1.592;2023-05-03T08:54:16;102018.01;;;12.45;46.10
59545;BME280;45368;55.002;-1.592;2023-05-03T08:56:43;102017.51;;;12.56;46.35
59545;BME280;45368;55.002;-1.592;2023-05-03T08:59:11;102020.98;;;12.60;45.85
59545;BME280;45368;55.002;-1.592;2023-05-03T09:01:39;102023.82;;;13.27;45.21
59545;BME280;45368;55.002;-1.592;2023-05-03T09:04:09;102025.54;;;13.13;45.91
59545;BME280;45368;55.002;-1.592;2023-05-03T09:06:37;102027.76;;;12.59;47.45
59545;BME280;45368;55.002;-1.592;2023-05-03T09:09:07;102024.05;;;12.01;48.06
59545;BME280;45368;55.002;-1.592;2023-05-03T09:11:36;102023.24;;;11.76;48.67
59545;BME280;45368;55.002;-1.592;2023-05-03T09:14:12;102020.69;;;12.76;47.16
59545;BME280;45368;55.002;-1.592;2023-05-03T09:16:41;102021.66;;;12.35;47.13
59545;BME280;45368;55.002;-1.592;2023-05-03T09:19:10;102014.06;;;13.24;45.22
59545;BME280;45368;55.002;-1.592;2023-05-03T09:21:38;102016.58;;;13.45;44.85
59545;BME280;45368;55.002;-1.592;2023-05-03T09:24:12;102016.56;;;12.87;46.48
59545;BME280;45368;55.002;-1.592;2023-05-03T09:26:39;102015.72;;;12.16;47.23
59545;BME280;45368;55.002;-1.592;2023-05-03T09:29:07;102016.19;;;12.50;46.17
59545;BME280;45368;55.002;-1.592;2023-05-03T09:31:36;102016.01;;;12.79;46.96
59545;BME280;45368;55.002;-1.592;2023-05-03T09:34:20;102014.97;;;12.59;46.90
59545;BME280;45368;55.002;-1.592;2023-05-03T09:36:47;102011.88;;;13.08;46.47
59545;BME280;45368;55.002;-1.592;2023-05-03T09:39:16;102009.54;;;12.66;46.41
59545;BME280;45368;55.002;-1.592;2023-05-03T09:41:43;102010.08;;;12.77;46.45
59545;BME280;45368;55.002;-1.592;2023-05-03T09:44:11;102003.01;;;13.50;45.47
59545;BME280;45368;55.002;-1.592;2023-05-03T09:46:38;102000.74;;;14.34;45.14
59545;BME280;45368;55.002;-1.592;2023-05-03T09:49:06;101999.35;;;13.97;43.93
59545;BME280;45368;55.002;-1.592;2023-05-03T09:51:33;102003.62;;;14.08;44.97
59545;BME280;45368;55.002;-1.592;2023-05-03T09:54:01;102005.55;;;13.45;45.02
59545;BME280;45368;55.002;-1.592;2023-05-03T09:56:29;102010.23;;;13.46;45.56
59545;BME280;45368;55.002;-1.592;2023-05-03T09:59:02;102007.03;;;13.15;45.36
59545;BME280;45368;55.002;-1.592;2023-05-03T10:01:29;102014.40;;;12.04;46.41
59545;BME280;45368;55.002;-1.592;2023-05-03T10:03:59;102011.97;;;12.33;46.99
59545;BME280;45368;55.002;-1.592;2023-05-03T10:06:32;102014.67;;;12.92;46.33
59545;BME280;45368;55.002;-1.592;2023-05-03T10:09:04;102012.10;;;13.35;46.00
59545;BME280;45368;55.002;-1.592;2023-05-03T10:11:34;102006.26;;;14.15;44.35
59545;BME280;45368;55.002;-1.592;2023-05-03T10:14:03;102011.19;;;14.01;44.36
59545;BME280;45368;55.002;-1.592;2023-05-03T10:16:35;102011.40;;;13.36;45.13
59545;BME280;45368;55.002;-1.592;2023-05-03T10:19:08;102012.92;;;12.69;45.14
59545;BME280;45368;55.002;-1.592;2023-05-03T10:21:54;102016.32;;;13.25;45.08
59545;BME280;45368;55.002;-1.592;2023-05-03T10:24:21;102014.42;;;13.57;43.95
59545;BME280;45368;55.002;-1.592;2023-05-03T10:26:50;102013.26;;;14.09;42.91
59545;BME280;45368;55.002;-1.592;2023-05-03T10:31:46;102012.55;;;14.71;42.61
59545;BME280;45368;55.002;-1.592;2023-05-03T10:34:22;102019.94;;;13.05;44.58
59545;BME280;45368;55.002;-1.592;2023-05-03T10:36:51;102018.75;;;13.50;43.57
59545;BME280;45368;55.002;-1.592;2023-05-03T10:39:19;102019.29;;;13.55;44.80
59545;BME280;45368;55.002;-1.592;2023-05-03T10:41:56;102016.87;;;13.51;44.58
59545;BME280;45368;55.002;-1.592;2023-05-03T10:44:25;102021.70;;;13.72;45.60
59545;BME280;45368;55.002;-1.592;2023-05-03T10:46:53;102011.12;;;14.21;43.65
59545;BME280;45368;55.002;-1.592;2023-05-03T10:49:21;102010.72;;;14.29;44.33
59545;BME280;45368;55.002;-1.592;2023-05-03T10:51:49;102008.64;;;14.31;43.52
59545;BME280;45368;55.002;-1.592;2023-05-03T10:54:16;102004.08;;;15.20;42.65
59545;BME280;45368;55.002;-1.592;2023-05-03T10:56:50;101996.87;;;16.20;41.17
59545;BME280;45368;55.002;-1.592;2023-05-03T10:59:17;102004.32;;;15.37;40.95
59545;BME280;45368;55.002;-1.592;2023-05-03T11:01:47;101998.47;;;16.12;40.01
59545;BME280;45368;55.002;-1.592;2023-05-03T11:04:20;101993.36;;;16.27;38.53
59545;BME280;45368;55.002;-1.592;2023-05-03T11:06:49;101997.52;;;16.51;37.22
59545;BME280;45368;55.002;-1.592;2023-05-03T11:09:17;101994.19;;;15.68;39.32
59545;BME280;45368;55.002;-1.592;2023-05-03T11:11:45;101983.66;;;16.80;35.96
59545;BME280;45368;55.002;-1.592;2023-05-03T11:14:11;101988.69;;;16.74;35.98
59545;BME280;45368;55.002;-1.592;2023-05-03T11:16:40;101982.08;;;18.47;34.34
59545;BME280;45368;55.002;-1.592;2023-05-03T11:19:08;101984.11;;;17.59;36.05
59545;BME280;45368;55.002;-1.592;2023-05-03T11:21:35;101985.85;;;17.10;37.01
59545;BME280;45368;55.002;-1.592;2023-05-03T11:24:02;101991.58;;;16.30;36.85
59545;BME280;45368;55.002;-1.592;2023-05-03T11:26:35;101987.26;;;17.50;35.66
59545;BME280;45368;55.002;-1.592;2023-05-03T11:29:02;101985.71;;;16.86;36.21
59545;BME280;45368;55.002;-1.592;2023-05-03T11:31:30;101982.11;;;17.16;35.61
59545;BME280;45368;55.002;-1.592;2023-05-03T11:33:58;101978.96;;;17.59;34.97
59545;BME280;45368;55.002;-1.592;2023-05-03T11:36:25;101983.82;;;16.08;37.63
59545;BME280;45368;55.002;-1.592;2023-05-03T11:38:53;101984.88;;;16.48;37.20
59545;BME280;45368;55.002;-1.592;2023-05-03T11:41:20;101982.43;;;16.86;37.30
59545;BME280;45368;55.002;-1.592;2023-05-03T11:43:48;101979.70;;;16.63;36.52
59545;BME280;45368;55.002;-1.592;2023-05-03T11:46:18;101974.84;;;17.66;35.30
59545;BME280;45368;55.002;-1.592;2023-05-03T11:48:45;101969.44;;;18.17;34.64
59545;BME280;45368;55.002;-1.592;2023-05-03T11:51:13;101968.19;;;18.11;34.88
59545;BME280;45368;55.002;-1.592;2023-05-03T11:53:41;101960.90;;;18.94;33.15
59545;BME280;45368;55.002;-1.592;2023-05-03T11:56:11;101958.97;;;18.36;35.44
59545;BME280;45368;55.002;-1.592;2023-05-03T11:58:49;101966.73;;;16.67;34.84
59545;BME280;45368;55.002;-1.592;2023-05-03T12:01:18;101969.08;;;17.64;35.62
59545;BME280;45368;55.002;-1.592;2023-05-03T12:03:45;101965.75;;;16.42;35.42
59545;BME280;45368;55.002;-1.592;2023-05-03T12:06:13;101963.99;;;15.49;37.20
59545;BME280;45368;55.002;-1.592;2023-05-03T12:08:40;101963.70;;;16.40;37.05
59545;BME280;45368;55.002;-1.592;2023-05-03T12:11:08;101959.52;;;16.13;37.95
59545;BME280;45368;55.002;-1.592;2023-05-03T12:13:37;101956.59;;;16.19;39.06
59545;BME280;45368;55.002;-1.592;2023-05-03T12:16:06;101954.04;;;16.11;38.67
59545;BME280;45368;55.002;-1.592;2023-05-03T12:18:50;101954.20;;;16.61;38.58
59545;BME280;45368;55.002;-1.592;2023-05-03T12:21:19;101955.72;;;16.17;38.62
59545;BME280;45368;55.002;-1.592;2023-05-03T12:23:46;101958.12;;;14.93;39.88
59545;BME280;45368;55.002;-1.592;2023-05-03T12:26:19;101954.23;;;15.20;38.24
59545;BME280;45368;55.002;-1.592;2023-05-03T12:28:47;101952.40;;;15.24;39.90
59545;BME280;45368;55.002;-1.592;2023-05-03T12:31:16;101945.97;;;15.09;39.50
59545;BME280;45368;55.002;-1.592;2023-05-03T12:33:43;101944.50;;;15.89;39.03
59545;BME280;45368;55.002;-1.592;2023-05-03T12:36:10;101943.83;;;15.39;39.20
59545;BME280;45368;55.002;-1.592;2023-05-03T12:38:37;101943.57;;;15.62;39.20
59545;BME280;45368;55.002;-1.592;2023-05-03T12:41:04;101941.78;;;15.83;39.67
59545;BME280;45368;55.002;-1.592;2023-05-03T12:43:31;101938.61;;;16.14;38.66
59545;BME280;45368;55.002;-1.592;2023-05-03T12:45:58;101933.73;;;15.30;39.04
59545;BME280;45368;55.002;-1.592;2023-05-03T12:48:26;101931.50;;;15.96;38.58
59545;BME280;45368;55.002;-1.592;2023-05-03T12:50:54;101929.33;;;15.44;38.74
59545;BME280;45368;55.002;-1.592;2023-05-03T12:53:22;101925.97;;;16.78;37.69